sensor_id;sensor_type;location;lat;lon;timestamp;temperature;humidity
7530;DHT22;3806;52.270;10.544;2023-06-26T00:01:26;22.80;99.80
7530;DHT22;3806;52.270;10.544;2023-06-26T00:03:55;22.80;99.60
7530;DHT22;3806;52.270;10.544;2023-06-26T00:06:20;22.80;99.50
7530;DHT22;3806;52.270;10.544;2023-06-26T00:08:46;22.80;99.60
7530;DHT22;3806;52.270;10.544;2023-06-26T00:11:11;22.80;99.40
7530;DHT22;3806;52.270;10.544;2023-06-26T00:13:37;22.80;99.50
7530;DHT22;3806;52.270;10.544;2023-06-26T00:16:02;22.80;99.60
7530;DHT22;3806;52.270;10.544;2023-06-26T00:18:29;22.80;99.60
7530;DHT22;3806;52.270;10.544;2023-06-26T00:20:57;22.70;99.50
7530;DHT22;3806;52.270;10.544;2023-06-26T00:23:23;22.70;99.60
7530;DHT22;3806;52.270;10.544;2023-06-26T00:25:48;22.70;99.50
7530;DHT22;3806;52.270;10.544;2023-06-26T00:28:14;22.70;99.60
7530;DHT22;3806;52.270;10.544;2023-06-26T00:30:39;22.60;99.60
7530;DHT22;3806;52.270;10.544;2023-06-26T00:33:05;22.60;99.70
7530;DHT22;3806;52.270;10.544;2023-06-26T00:35:31;22.60;99.50
7530;DHT22;3806;52.270;10.544;2023-06-26T00:37:56;22.60;99.70
7530;DHT22;3806;52.270;10.544;2023-06-26T00:40:22;22.70;99.20
7530;DHT22;3806;52.270;10.544;2023-06-26T00:42:49;22.60;99.20
7530;DHT22;3806;52.270;10.544;2023-06-26T00:45:15;22.60;99.40
7530;DHT22;3806;52.270;10.544;2023-06-26T00:47:41;22.60;99.20
7530;DHT22;3806;52.270;10.544;2023-06-26T00:50:07;22.60;99.30
7530;DHT22;3806;52.270;10.544;2023-06-26T00:52:33;22.60;99.30
7530;DHT22;3806;52.270;10.544;2023-06-26T00:55:01;22.60;99.30
7530;DHT22;3806;52.270;10.544;2023-06-26T00:57:27;22.60;99.60
7530;DHT22;3806;52.270;10.544;2023-06-26T00:59:53;22.60;99.30
7530;DHT22;3806;52.270;10.544;2023-06-26T01:02:18;22.60;99.30
7530;DHT22;3806;52.270;10.544;2023-06-26T01:04:50;22.50;99.30
7530;DHT22;3806;52.270;10.544;2023-06-26T01:07:18;22.50;99.30
7530;DHT22;3806;52.270;10.544;2023-06-26T01:09:47;22.40;99.20
7530;DHT22;3806;52.270;10.544;2023-06-26T01:12:13;22.50;99.30
7530;DHT22;3806;52.270;10.544;2023-06-26T01:14:39;22.50;99.40
7530;DHT22;3806;52.270;10.544;2023-06-26T01:17:05;22.40;99.40
7530;DHT22;3806;52.270;10.544;2023-06-26T01:19:32;22.40;99.60
7530;DHT22;3806;52.270;10.544;2023-06-26T01:22:19;22.40;99.70
7530;DHT22;3806;52.270;10.544;2023-06-26T01:27:37;22.40;99.70
7530;DHT22;3806;52.270;10.544;2023-06-26T01:30:04;22.40;99.70
7530;DHT22;3806;52.270;10.544;2023-06-26T01:32:31;22.40;99.70
7530;DHT22;3806;52.270;10.544;2023-06-26T01:34:59;22.30;99.50
7530;DHT22;3806;52.270;10.544;2023-06-26T01:37:24;22.30;99.30
7530;DHT22;3806;52.270;10.544;2023-06-26T01:39:50;22.30;99.50
7530;DHT22;3806;52.270;10.544;2023-06-26T01:42:16;22.20;99.60
7530;DHT22;3806;52.270;10.544;2023-06-26T01:44:45;22.20;99.90
7530;DHT22;3806;52.270;10.544;2023-06-26T01:47:16;22.20;99.90
7530;DHT22;3806;52.270;10.544;2023-06-26T01:49:49;22.20;99.80
7530;DHT22;3806;52.270;10.544;2023-06-26T01:52:32;22.20;99.80
7530;DHT22;3806;52.270;10.544;2023-06-26T01:55:17;22.20;99.90
7530;DHT22;3806;52.270;10.544;2023-06-26T01:57:45;22.20;99.90
7530;DHT22;3806;52.270;10.544;2023-06-26T02:00:14;22.20;99.90
7530;DHT22;3806;52.270;10.544;2023-06-26T02:02:44;22.10;99.80
7530;DHT22;3806;52.270;10.544;2023-06-26T02:05:09;22.10;99.90
7530;DHT22;3806;52.270;10.544;2023-06-26T02:07:35;22.10;99.90
7530;DHT22;3806;52.270;10.544;2023-06-26T02:10:02;22.10;99.90
7530;DHT22;3806;52.270;10.544;2023-06-26T02:12:27;22.10;99.90
7530;DHT22;3806;52.270;10.544;2023-06-26T02:14:53;22.00;99.90
7530;DHT22;3806;52.270;10.544;2023-06-26T02:17:18;22.00;99.90
7530;DHT22;3806;52.270;10.544;2023-06-26T02:19:44;22.00;99.90
7530;DHT22;3806;52.270;10.544;2023-06-26T02:22:13;22.00;99.90
7530;DHT22;3806;52.270;10.544;2023-06-26T02:24:40;21.90;99.90
7530;DHT22;3806;52.270;10.544;2023-06-26T02:27:06;21.90;99.90
7530;DHT22;3806;52.270;10.544;2023-06-26T02:29:31;21.90;99.90
7530;DHT22;3806;52.270;10.544;2023-06-26T02:31:57;21.90;99.90
7530;DHT22;3806;52.270;10.544;2023-06-26T02:34:22;21.90;99.90
7530;DHT22;3806;52.270;10.544;2023-06-26T02:36:48;21.90;99.70
7530;DHT22;3806;52.270;10.544;2023-06-26T02:39:14;21.80;99.50
7530;DHT22;3806;52.270;10.544;2023-06-26T02:41:40;21.80;99.60
7530;DHT22;3806;52.270;10.544;2023-06-26T02:44:05;21.70;99.70
7530;DHT22;3806;52.270;10.544;2023-06-26T02:46:32;21.70;99.70
7530;DHT22;3806;52.270;10.544;2023-06-26T02:48:58;21.70;99.60
7530;DHT22;3806;52.270;10.544;2023-06-26T02:51:24;21.70;99.60
7530;DHT22;3806;52.270;10.544;2023-06-26T02:53:50;21.70;99.50
7530;DHT22;3806;52.270;10.544;2023-06-26T02:56:15;21.70;99.50
7530;DHT22;3806;52.270;10.544;2023-06-26T02:58:41;21.70;99.70
7530;DHT22;3806;52.270;10.544;2023-06-26T03:01:06;21.70;99.70
7530;DHT22;3806;52.270;10.544;2023-06-26T03:03:32;21.60;99.80
7530;DHT22;3806;52.270;10.544;2023-06-26T03:06:06;21.70;99.70
7530;DHT22;3806;52.270;10.544;2023-06-26T03:08:36;21.60;99.70
7530;DHT22;3806;52.270;10.544;2023-06-26T03:11:02;21.60;99.70
7530;DHT22;3806;52.270;10.544;2023-06-26T03:13:28;21.60;99.70
7530;DHT22;3806;52.270;10.544;2023-06-26T03:15:56;21.60;99.70
7530;DHT22;3806;52.270;10.544;2023-06-26T03:18:21;21.60;99.80
7530;DHT22;3806;52.270;10.544;2023-06-26T03:20:47;21.60;99.80
7530;DHT22;3806;52.270;10.544;2023-06-26T03:23:16;21.60;99.90
7530;DHT22;3806;52.270;10.544;2023-06-26T03:25:41;21.60;99.90
7530;DHT22;3806;52.270;10.544;2023-06-26T03:28:07;21.50;99.90
7530;DHT22;3806;52.270;10.544;2023-06-26T03:30:32;21.50;99.90
7530;DHT22;3806;52.270;10.544;2023-06-26T03:32:58;21.50;99.90
7530;DHT22;3806;52.270;10.544;2023-06-26T03:35:23;21.40;99.80
7530;DHT22;3806;52.270;10.544;2023-06-26T03:37:49;21.60;99.70
7530;DHT22;3806;52.270;10.544;2023-06-26T03:40:15;21.60;99.70
7530;DHT22;3806;52.270;10.544;2023-06-26T03:42:42;21.60;99.80
7530;DHT22;3806;52.270;10.544;2023-06-26T03:45:07;21.60;99.80
7530;DHT22;3806;52.270;10.544;2023-06-26T03:47:33;21.60;99.70
7530;DHT22;3806;52.270;10.544;2023-06-26T03:49:58;21.60;99.70
7530;DHT22;3806;52.270;10.544;2023-06-26T03:52:24;21.60;99.70
7530;DHT22;3806;52.270;10.544;2023-06-26T03:54:50;21.70;99.70
7530;DHT22;3806;52.270;10.544;2023-06-26T03:57:15;21.70;99.70
7530;DHT22;3806;52.270;10.544;2023-06-26T03:59:41;21.70;99.60
7530;DHT22;3806;52.270;10.544;2023-06-26T04:02:06;21.70;99.50
7530;DHT22;3806;52.270;10.544;2023-06-26T04:04:32;21.70;99.30
7530;DHT22;3806;52.270;10.544;2023-06-26T04:06:57;21.70;99.30
7530;DHT22;3806;52.270;10.544;2023-06-26T04:09:25;21.80;99.00
7530;DHT22;3806;52.270;10.544;2023-06-26T04:11:50;21.80;99.10
7530;DHT22;3806;52.270;10.544;2023-06-26T04:14:16;21.80;99.10
7530;DHT22;3806;52.270;10.544;2023-06-26T04:16:41;21.90;99.10
7530;DHT22;3806;52.270;10.544;2023-06-26T04:19:07;22.10;98.90
7530;DHT22;3806;52.270;10.544;2023-06-26T04:21:33;21.90;98.90
7530;DHT22;3806;52.270;10.544;2023-06-26T04:23:58;22.10;98.80
7530;DHT22;3806;52.270;10.544;2023-06-26T04:26:24;22.20;98.30
7530;DHT22;3806;52.270;10.544;2023-06-26T04:28:49;22.30;98.20
7530;DHT22;3806;52.270;10.544;2023-06-26T04:31:15;22.50;98.00
7530;DHT22;3806;52.270;10.544;2023-06-26T04:33:40;22.70;97.80
7530;DHT22;3806;52.270;10.544;2023-06-26T04:36:06;23.00;97.20
7530;DHT22;3806;52.270;10.544;2023-06-26T04:38:32;23.30;96.70
7530;DHT22;3806;52.270;10.544;2023-06-26T04:40:58;23.60;96.10
7530;DHT22;3806;52.270;10.544;2023-06-26T04:43:24;23.90;95.80
7530;DHT22;3806;52.270;10.544;2023-06-26T04:45:50;24.40;95.20
7530;DHT22;3806;52.270;10.544;2023-06-26T04:48:15;24.80;94.10
7530;DHT22;3806;52.270;10.544;2023-06-26T04:50:42;25.20;93.00
7530;DHT22;3806;52.270;10.544;2023-06-26T04:53:07;25.60;91.80
7530;DHT22;3806;52.270;10.544;2023-06-26T04:55:33;26.10;90.90
7530;DHT22;3806;52.270;10.544;2023-06-26T04:57:58;26.60;90.00
7530;DHT22;3806;52.270;10.544;2023-06-26T05:00:24;27.00;86.80
7530;DHT22;3806;52.270;10.544;2023-06-26T05:02:50;27.50;84.20
7530;DHT22;3806;52.270;10.544;2023-06-26T05:05:24;28.00;81.40
7530;DHT22;3806;52.270;10.544;2023-06-26T05:07:52;28.60;78.00
7530;DHT22;3806;52.270;10.544;2023-06-26T05:10:17;29.10;74.20
7530;DHT22;3806;52.270;10.544;2023-06-26T05:12:43;29.60;72.80
7530;DHT22;3806;52.270;10.544;2023-06-26T05:15:08;30.10;69.40
7530;DHT22;3806;52.270;10.544;2023-06-26T05:17:34;30.70;66.90
7530;DHT22;3806;52.270;10.544;2023-06-26T05:19:59;31.30;64.50
7530;DHT22;3806;52.270;10.544;2023-06-26T05:22:26;31.80;61.10
7530;DHT22;3806;52.270;10.544;2023-06-26T05:24:54;32.40;58.50
7530;DHT22;3806;52.270;10.544;2023-06-26T05:27:20;32.80;56.50
7530;DHT22;3806;52.270;10.544;2023-06-26T05:29:48;33.30;54.80
7530;DHT22;3806;52.270;10.544;2023-06-26T05:32:16;33.60;51.50
7530;DHT22;3806;52.270;10.544;2023-06-26T05:34:48;33.80;50.40
7530;DHT22;3806;52.270;10.544;2023-06-26T05:37:21;34.10;49.00
7530;DHT22;3806;52.270;10.544;2023-06-26T05:39:47;34.40;47.70
7530;DHT22;3806;52.270;10.544;2023-06-26T05:42:13;34.70;46.70
7530;DHT22;3806;52.270;10.544;2023-06-26T05:44:38;34.80;45.60
7530;DHT22;3806;52.270;10.544;2023-06-26T05:47:04;34.90;45.40
7530;DHT22;3806;52.270;10.544;2023-06-26T05:49:30;35.10;44.90
7530;DHT22;3806;52.270;10.544;2023-06-26T05:51:55;35.40;43.80
7530;DHT22;3806;52.270;10.544;2023-06-26T05:54:22;35.50;43.10
7530;DHT22;3806;52.270;10.544;2023-06-26T05:56:48;35.70;42.70
7530;DHT22;3806;52.270;10.544;2023-06-26T05:59:15;35.80;42.30
7530;DHT22;3806;52.270;10.544;2023-06-26T06:01:42;36.10;41.70
7530;DHT22;3806;52.270;10.544;2023-06-26T06:04:07;36.40;41.80
7530;DHT22;3806;52.270;10.544;2023-06-26T06:06:32;37.00;41.40
7530;DHT22;3806;52.270;10.544;2023-06-26T06:08:58;37.60;40.20
7530;DHT22;3806;52.270;10.544;2023-06-26T06:11:23;38.30;39.00
7530;DHT22;3806;52.270;10.544;2023-06-26T06:13:49;38.90;38.10
7530;DHT22;3806;52.270;10.544;2023-06-26T06:16:15;39.40;37.70
7530;DHT22;3806;52.270;10.544;2023-06-26T06:18:40;39.80;35.50
7530;DHT22;3806;52.270;10.544;2023-06-26T06:21:06;39.90;35.20
7530;DHT22;3806;52.270;10.544;2023-06-26T06:23:32;39.90;34.90
7530;DHT22;3806;52.270;10.544;2023-06-26T06:25:57;39.70;35.00
7530;DHT22;3806;52.270;10.544;2023-06-26T06:28:23;39.20;35.10
7530;DHT22;3806;52.270;10.544;2023-06-26T06:30:48;38.50;35.90
7530;DHT22;3806;52.270;10.544;2023-06-26T06:33:14;37.90;36.70
7530;DHT22;3806;52.270;10.544;2023-06-26T06:35:39;37.30;37.40
7530;DHT22;3806;52.270;10.544;2023-06-26T06:38:05;37.10;37.80
7530;DHT22;3806;52.270;10.544;2023-06-26T06:40:31;36.80;38.30
7530;DHT22;3806;52.270;10.544;2023-06-26T06:42:56;36.30;38.90
7530;DHT22;3806;52.270;10.544;2023-06-26T06:45:21;35.60;40.00
7530;DHT22;3806;52.270;10.544;2023-06-26T06:47:47;34.90;41.20
7530;DHT22;3806;52.270;10.544;2023-06-26T06:50:12;34.30;42.60
7530;DHT22;3806;52.270;10.544;2023-06-26T06:52:39;33.80;43.40
7530;DHT22;3806;52.270;10.544;2023-06-26T06:55:06;33.50;44.60
7530;DHT22;3806;52.270;10.544;2023-06-26T06:57:39;33.20;45.40
7530;DHT22;3806;52.270;10.544;2023-06-26T07:00:12;32.90;46.20
7530;DHT22;3806;52.270;10.544;2023-06-26T07:02:42;32.80;46.60
7530;DHT22;3806;52.270;10.544;2023-06-26T07:05:09;32.60;47.10
7530;DHT22;3806;52.270;10.544;2023-06-26T07:07:35;32.50;46.90
7530;DHT22;3806;52.270;10.544;2023-06-26T07:10:04;32.50;47.30
7530;DHT22;3806;52.270;10.544;2023-06-26T07:12:29;32.40;47.60
7530;DHT22;3806;52.270;10.544;2023-06-26T07:14:56;32.40;47.60
7530;DHT22;3806;52.270;10.544;2023-06-26T07:17:22;32.30;47.90
7530;DHT22;3806;52.270;10.544;2023-06-26T07:19:49;32.20;48.10
7530;DHT22;3806;52.270;10.544;2023-06-26T07:22:14;32.10;48.50
7530;DHT22;3806;52.270;10.544;2023-06-26T07:24:40;32.10;49.20
7530;DHT22;3806;52.270;10.544;2023-06-26T07:27:05;32.20;49.60
7530;DHT22;3806;52.270;10.544;2023-06-26T07:29:31;32.20;49.80
7530;DHT22;3806;52.270;10.544;2023-06-26T07:31:56;32.30;49.40
7530;DHT22;3806;52.270;10.544;2023-06-26T07:34:21;32.30;49.20
7530;DHT22;3806;52.270;10.544;2023-06-26T07:36:47;32.20;49.30
7530;DHT22;3806;52.270;10.544;2023-06-26T07:39:12;32.20;50.10
7530;DHT22;3806;52.270;10.544;2023-06-26T07:41:38;32.30;50.20
7530;DHT22;3806;52.270;10.544;2023-06-26T07:44:03;32.50;50.90
7530;DHT22;3806;52.270;10.544;2023-06-26T07:46:29;32.60;50.10
7530;DHT22;3806;52.270;10.544;2023-06-26T07:48:55;32.70;49.10
7530;DHT22;3806;52.270;10.544;2023-06-26T07:51:20;32.70;48.60
7530;DHT22;3806;52.270;10.544;2023-06-26T07:53:46;32.70;48.90
7530;DHT22;3806;52.270;10.544;2023-06-26T07:56:11;32.70;49.10
7530;DHT22;3806;52.270;10.544;2023-06-26T07:58:37;32.80;48.70
7530;DHT22;3806;52.270;10.544;2023-06-26T08:01:03;32.90;48.20
7530;DHT22;3806;52.270;10.544;2023-06-26T08:03:28;32.90;47.80
7530;DHT22;3806;52.270;10.544;2023-06-26T08:05:54;32.90;47.30
7530;DHT22;3806;52.270;10.544;2023-06-26T08:08:19;32.80;46.50
7530;DHT22;3806;52.270;10.544;2023-06-26T08:10:45;32.80;46.70
7530;DHT22;3806;52.270;10.544;2023-06-26T08:13:10;32.80;46.50
7530;DHT22;3806;52.270;10.544;2023-06-26T08:15:36;32.90;45.00
7530;DHT22;3806;52.270;10.544;2023-06-26T08:18:01;32.90;44.50
7530;DHT22;3806;52.270;10.544;2023-06-26T08:20:27;32.80;43.80
7530;DHT22;3806;52.270;10.544;2023-06-26T08:22:53;32.80;43.80
7530;DHT22;3806;52.270;10.544;2023-06-26T08:25:19;32.90;44.10
7530;DHT22;3806;52.270;10.544;2023-06-26T08:27:45;32.80;43.90
7530;DHT22;3806;52.270;10.544;2023-06-26T08:30:11;32.90;44.20
7530;DHT22;3806;52.270;10.544;2023-06-26T08:32:37;32.90;44.20
7530;DHT22;3806;52.270;10.544;2023-06-26T08:35:02;32.90;44.20
7530;DHT22;3806;52.270;10.544;2023-06-26T08:37:28;32.90;43.70
7530;DHT22;3806;52.270;10.544;2023-06-26T08:39:53;32.90;44.10
7530;DHT22;3806;52.270;10.544;2023-06-26T08:42:19;33.00;44.00
7530;DHT22;3806;52.270;10.544;2023-06-26T08:44:44;33.10;43.90
7530;DHT22;3806;52.270;10.544;2023-06-26T08:47:11;33.00;43.90
7530;DHT22;3806;52.270;10.544;2023-06-26T08:52:25;32.80;43.50
7530;DHT22;3806;52.270;10.544;2023-06-26T08:54:59;32.80;43.90
7530;DHT22;3806;52.270;10.544;2023-06-26T08:57:26;32.90;44.70
7530;DHT22;3806;52.270;10.544;2023-06-26T08:59:52;33.00;44.60
7530;DHT22;3806;52.270;10.544;2023-06-26T09:02:18;33.10;44.40
7530;DHT22;3806;52.270;10.544;2023-06-26T09:04:47;33.20;44.40
7530;DHT22;3806;52.270;10.544;2023-06-26T09:07:13;33.20;44.50
7530;DHT22;3806;52.270;10.544;2023-06-26T09:09:38;33.30;44.60
7530;DHT22;3806;52.270;10.544;2023-06-26T09:12:04;33.30;44.50
7530;DHT22;3806;52.270;10.544;2023-06-26T09:14:30;33.20;44.60
7530;DHT22;3806;52.270;10.544;2023-06-26T09:16:55;33.10;44.90
7530;DHT22;3806;52.270;10.544;2023-06-26T09:19:21;33.00;44.70
7530;DHT22;3806;52.270;10.544;2023-06-26T09:21:49;33.00;44.80
7530;DHT22;3806;52.270;10.544;2023-06-26T09:24:15;32.90;44.90
7530;DHT22;3806;52.270;10.544;2023-06-26T09:26:41;33.00;45.20
7530;DHT22;3806;52.270;10.544;2023-06-26T09:29:08;33.20;45.60
7530;DHT22;3806;52.270;10.544;2023-06-26T09:31:36;33.30;45.10
7530;DHT22;3806;52.270;10.544;2023-06-26T09:34:02;33.40;44.90
7530;DHT22;3806;52.270;10.544;2023-06-26T09:36:31;33.50;45.10
7530;DHT22;3806;52.270;10.544;2023-06-26T09:39:03;33.60;45.20
7530;DHT22;3806;52.270;10.544;2023-06-26T09:41:30;33.70;44.90
7530;DHT22;3806;52.270;10.544;2023-06-26T09:43:58;33.80;44.80
7530;DHT22;3806;52.270;10.544;2023-06-26T09:46:26;33.80;44.70
7530;DHT22;3806;52.270;10.544;2023-06-26T09:49:04;33.80;45.00
7530;DHT22;3806;52.270;10.544;2023-06-26T09:51:31;33.80;45.20
7530;DHT22;3806;52.270;10.544;2023-06-26T09:53:58;33.80;44.80
7530;DHT22;3806;52.270;10.544;2023-06-26T09:56:24;33.60;44.80
7530;DHT22;3806;52.270;10.544;2023-06-26T09:58:49;33.40;45.50
7530;DHT22;3806;52.270;10.544;2023-06-26T10:01:15;33.40;46.00
7530;DHT22;3806;52.270;10.544;2023-06-26T10:03:41;33.50;46.20
7530;DHT22;3806;52.270;10.544;2023-06-26T10:06:09;33.60;46.70
7530;DHT22;3806;52.270;10.544;2023-06-26T10:08:37;33.70;47.00
7530;DHT22;3806;52.270;10.544;2023-06-26T10:11:04;33.80;47.00
7530;DHT22;3806;52.270;10.544;2023-06-26T10:13:38;33.90;47.20
7530;DHT22;3806;52.270;10.544;2023-06-26T10:16:07;33.90;46.50
7530;DHT22;3806;52.270;10.544;2023-06-26T10:18:35;33.90;45.80
7530;DHT22;3806;52.270;10.544;2023-06-26T10:21:03;33.80;46.30
7530;DHT22;3806;52.270;10.544;2023-06-26T10:23:30;33.80;46.40
7530;DHT22;3806;52.270;10.544;2023-06-26T10:25:58;33.70;46.00
7530;DHT22;3806;52.270;10.544;2023-06-26T10:28:28;33.60;45.70
7530;DHT22;3806;52.270;10.544;2023-06-26T10:30:55;33.40;46.10
7530;DHT22;3806;52.270;10.544;2023-06-26T10:33:21;33.40;46.80
7530;DHT22;3806;52.270;10.544;2023-06-26T10:35:47;33.40;47.10
7530;DHT22;3806;52.270;10.544;2023-06-26T10:38:13;33.40;47.00
7530;DHT22;3806;52.270;10.544;2023-06-26T10:40:48;33.40;46.40
7530;DHT22;3806;52.270;10.544;2023-06-26T10:43:17;33.30;46.70
7530;DHT22;3806;52.270;10.544;2023-06-26T10:45:48;33.20;47.10
7530;DHT22;3806;52.270;10.544;2023-06-26T10:48:18;33.10;47.30
7530;DHT22;3806;52.270;10.544;2023-06-26T10:50:47;32.80;47.80
7530;DHT22;3806;52.270;10.544;2023-06-26T10:55:58;32.10;49.70
7530;DHT22;3806;52.270;10.544;2023-06-26T10:58:31;31.90;50.20
7530;DHT22;3806;52.270;10.544;2023-06-26T11:01:20;31.50;51.10
7530;DHT22;3806;52.270;10.544;2023-06-26T11:06:27;31.10;52.30
7530;DHT22;3806;52.270;10.544;2023-06-26T11:08:54;30.90;52.40
7530;DHT22;3806;52.270;10.544;2023-06-26T11:11:22;30.70;52.70
7530;DHT22;3806;52.270;10.544;2023-06-26T11:14:06;30.50;53.70
7530;DHT22;3806;52.270;10.544;2023-06-26T11:16:33;30.40;53.30
7530;DHT22;3806;52.270;10.544;2023-06-26T11:18:59;30.30;53.90
7530;DHT22;3806;52.270;10.544;2023-06-26T11:21:25;30.10;54.30
7530;DHT22;3806;52.270;10.544;2023-06-26T11:23:51;29.90;54.50
7530;DHT22;3806;52.270;10.544;2023-06-26T11:26:18;29.80;54.90
7530;DHT22;3806;52.270;10.544;2023-06-26T11:28:48;29.60;55.30
7530;DHT22;3806;52.270;10.544;2023-06-26T11:31:36;29.40;55.50
7530;DHT22;3806;52.270;10.544;2023-06-26T11:34:06;29.20;56.20
7530;DHT22;3806;52.270;10.544;2023-06-26T11:36:37;29.10;57.00
7530;DHT22;3806;52.270;10.544;2023-06-26T11:39:04;29.00;57.60
7530;DHT22;3806;52.270;10.544;2023-06-26T11:41:35;29.10;58.60
7530;DHT22;3806;52.270;10.544;2023-06-26T11:44:05;29.00;59.10
7530;DHT22;3806;52.270;10.544;2023-06-26T11:46:32;28.90;59.50
7530;DHT22;3806;52.270;10.544;2023-06-26T11:48:58;28.90;59.50
7530;DHT22;3806;52.270;10.544;2023-06-26T11:51:23;29.00;59.30
7530;DHT22;3806;52.270;10.544;2023-06-26T11:53:51;28.90;58.80
7530;DHT22;3806;52.270;10.544;2023-06-26T11:56:18;28.80;58.20
7530;DHT22;3806;52.270;10.544;2023-06-26T11:59:04;28.70;57.50
7530;DHT22;3806;52.270;10.544;2023-06-26T12:01:38;28.40;57.80
7530;DHT22;3806;52.270;10.544;2023-06-26T12:04:06;28.20;58.40
7530;DHT22;3806;52.270;10.544;2023-06-26T12:06:34;27.90;59.10
7530;DHT22;3806;52.270;10.544;2023-06-26T12:09:07;27.70;59.90
7530;DHT22;3806;52.270;10.544;2023-06-26T12:11:35;27.60;60.80
7530;DHT22;3806;52.270;10.544;2023-06-26T12:14:02;27.40;61.70
7530;DHT22;3806;52.270;10.544;2023-06-26T12:16:29;27.30;62.80
7530;DHT22;3806;52.270;10.544;2023-06-26T12:18:59;27.10;63.50
7530;DHT22;3806;52.270;10.544;2023-06-26T12:24:04;26.80;66.10
7530;DHT22;3806;52.270;10.544;2023-06-26T12:26:30;26.70;67.50
7530;DHT22;3806;52.270;10.544;2023-06-26T12:29:10;26.60;68.80
7530;DHT22;3806;52.270;10.544;2023-06-26T12:31:43;26.50;70.50
7530;DHT22;3806;52.270;10.544;2023-06-26T12:34:13;26.40;71.90
7530;DHT22;3806;52.270;10.544;2023-06-26T12:36:43;26.30;73.80
7530;DHT22;3806;52.270;10.544;2023-06-26T12:39:10;26.20;75.60
7530;DHT22;3806;52.270;10.544;2023-06-26T12:41:54;26.20;77.40
7530;DHT22;3806;52.270;10.544;2023-06-26T12:44:30;26.20;79.20
7530;DHT22;3806;52.270;10.544;2023-06-26T12:46:56;26.10;80.80
7530;DHT22;3806;52.270;10.544;2023-06-26T12:49:39;26.10;82.30
7530;DHT22;3806;52.270;10.544;2023-06-26T12:52:07;26.10;84.30
7530;DHT22;3806;52.270;10.544;2023-06-26T12:54:40;26.30;88.00
7530;DHT22;3806;52.270;10.544;2023-06-26T12:57:07;26.40;90.60
7530;DHT22;3806;52.270;10.544;2023-06-26T12:59:33;26.50;92.10
7530;DHT22;3806;52.270;10.544;2023-06-26T13:02:00;26.70;92.70
7530;DHT22;3806;52.270;10.544;2023-06-26T13:04:25;26.90;93.20
7530;DHT22;3806;52.270;10.544;2023-06-26T13:06:51;27.00;93.40
7530;DHT22;3806;52.270;10.544;2023-06-26T13:09:20;27.20;93.10
7530;DHT22;3806;52.270;10.544;2023-06-26T13:11:45;27.50;92.50
7530;DHT22;3806;52.270;10.544;2023-06-26T13:14:11;27.80;91.80
7530;DHT22;3806;52.270;10.544;2023-06-26T13:16:37;28.00;90.80
7530;DHT22;3806;52.270;10.544;2023-06-26T13:19:02;28.10;90.30
7530;DHT22;3806;52.270;10.544;2023-06-26T13:21:28;28.00;90.00
7530;DHT22;3806;52.270;10.544;2023-06-26T13:23:55;27.80;89.80
7530;DHT22;3806;52.270;10.544;2023-06-26T13:26:21;27.50;88.90
7530;DHT22;3806;52.270;10.544;2023-06-26T13:28:47;27.30;89.00
7530;DHT22;3806;52.270;10.544;2023-06-26T13:31:13;27.10;89.30
7530;DHT22;3806;52.270;10.544;2023-06-26T13:33:38;27.10;89.00
7530;DHT22;3806;52.270;10.544;2023-06-26T13:36:04;27.10;88.30
7530;DHT22;3806;52.270;10.544;2023-06-26T13:38:33;27.30;87.00
7530;DHT22;3806;52.270;10.544;2023-06-26T13:40:59;27.50;86.20
7530;DHT22;3806;52.270;10.544;2023-06-26T13:43:26;27.70;84.90
7530;DHT22;3806;52.270;10.544;2023-06-26T13:45:52;27.90;83.90
7530;DHT22;3806;52.270;10.544;2023-06-26T13:48:17;28.00;82.60
7530;DHT22;3806;52.270;10.544;2023-06-26T13:50:43;28.10;81.90
7530;DHT22;3806;52.270;10.544;2023-06-26T13:53:08;28.20;80.50
7530;DHT22;3806;52.270;10.544;2023-06-26T13:55:34;28.30;78.50
7530;DHT22;3806;52.270;10.544;2023-06-26T13:58:00;28.20;77.20
7530;DHT22;3806;52.270;10.544;2023-06-26T14:00:31;28.10;76.90
7530;DHT22;3806;52.270;10.544;2023-06-26T14:02:56;28.10;76.00
7530;DHT22;3806;52.270;10.544;2023-06-26T14:05:22;28.10;74.70
7530;DHT22;3806;52.270;10.544;2023-06-26T14:07:48;28.10;73.10
7530;DHT22;3806;52.270;10.544;2023-06-26T14:10:14;28.20;72.30
7530;DHT22;3806;52.270;10.544;2023-06-26T14:12:40;28.20;72.20
7530;DHT22;3806;52.270;10.544;2023-06-26T14:15:06;28.20;71.70
7530;DHT22;3806;52.270;10.544;2023-06-26T14:17:32;28.20;70.80
7530;DHT22;3806;52.270;10.544;2023-06-26T14:19:57;28.20;70.30
7530;DHT22;3806;52.270;10.544;2023-06-26T14:22:23;28.20;70.00
7530;DHT22;3806;52.270;10.544;2023-06-26T14:24:49;28.10;70.60
7530;DHT22;3806;52.270;10.544;2023-06-26T14:27:14;28.10;70.90
7530;DHT22;3806;52.270;10.544;2023-06-26T14:29:40;28.00;70.20
7530;DHT22;3806;52.270;10.544;2023-06-26T14:32:06;27.90;70.30
7530;DHT22;3806;52.270;10.544;2023-06-26T14:34:32;27.90;70.20
7530;DHT22;3806;52.270;10.544;2023-06-26T14:36:58;27.80;69.00
7530;DHT22;3806;52.270;10.544;2023-06-26T14:39:23;27.60;67.80
7530;DHT22;3806;52.270;10.544;2023-06-26T14:41:49;27.40;66.40
7530;DHT22;3806;52.270;10.544;2023-06-26T14:44:15;27.30;66.50
7530;DHT22;3806;52.270;10.544;2023-06-26T14:46:40;27.30;66.70
7530;DHT22;3806;52.270;10.544;2023-06-26T14:49:06;27.40;66.30
7530;DHT22;3806;52.270;10.544;2023-06-26T14:51:31;27.50;65.90
7530;DHT22;3806;52.270;10.544;2023-06-26T14:53:57;27.80;65.80
7530;DHT22;3806;52.270;10.544;2023-06-26T14:56:22;27.90;65.30
7530;DHT22;3806;52.270;10.544;2023-06-26T14:58:49;28.00;64.30
7530;DHT22;3806;52.270;10.544;2023-06-26T15:01:14;28.00;63.80
7530;DHT22;3806;52.270;10.544;2023-06-26T15:03:45;28.00;63.80
7530;DHT22;3806;52.270;10.544;2023-06-26T15:06:11;27.90;63.70
7530;DHT22;3806;52.270;10.544;2023-06-26T15:08:36;27.80;64.10
7530;DHT22;3806;52.270;10.544;2023-06-26T15:11:02;27.70;64.70
7530;DHT22;3806;52.270;10.544;2023-06-26T15:13:31;27.80;65.00
7530;DHT22;3806;52.270;10.544;2023-06-26T15:15:56;27.70;64.50
7530;DHT22;3806;52.270;10.544;2023-06-26T15:18:22;27.70;63.70
7530;DHT22;3806;52.270;10.544;2023-06-26T15:20:47;27.70;63.80
7530;DHT22;3806;52.270;10.544;2023-06-26T15:23:13;27.60;64.30
7530;DHT22;3806;52.270;10.544;2023-06-26T15:25:38;27.60;64.80
7530;DHT22;3806;52.270;10.544;2023-06-26T15:28:05;27.60;65.00
7530;DHT22;3806;52.270;10.544;2023-06-26T15:30:30;27.50;65.50
7530;DHT22;3806;52.270;10.544;2023-06-26T15:32:56;27.40;65.90
7530;DHT22;3806;52.270;10.544;2023-06-26T15:35:22;27.30;66.10
7530;DHT22;3806;52.270;10.544;2023-06-26T15:37:47;27.30;67.10
7530;DHT22;3806;52.270;10.544;2023-06-26T15:40:14;27.20;66.50
7530;DHT22;3806;52.270;10.544;2023-06-26T15:42:50;27.20;66.30
7530;DHT22;3806;52.270;10.544;2023-06-26T15:45:16;27.10;65.40
7530;DHT22;3806;52.270;10.544;2023-06-26T15:47:48;27.00;64.80
7530;DHT22;3806;52.270;10.544;2023-06-26T15:50:13;26.90;64.70
7530;DHT22;3806;52.270;10.544;2023-06-26T15:52:39;26.90;64.50
7530;DHT22;3806;52.270;10.544;2023-06-26T15:55:05;26.80;63.90
7530;DHT22;3806;52.270;10.544;2023-06-26T15:57:31;26.70;63.50